Terminal Aerodrome Forecast
Issued by NWS

Home | Current Version | Previous Version | Text Only | Print | Product List | Glossary On
Versions: 1 2 3 4 5 6 7 8 9 10 11 12 13 14 15 16 17 18 19 20
000
FTUS43 KGRR 230900 AAE
TAFJXN
TAF AMD
KJXN 230941Z 2310/2406 VRB04KT P6SM OVC014
     FM231100 33010KT P6SM OVC012
     FM231700 35010KT P6SM BKN040
     FM240000 01004KT P6SM FEW040=

USA.gov is the U.S. government's official web portal to all federal, state and local government web resources and services.